Time;durP1;ratioP1;P1;durP2;ratioP2;P2;SDS_P1;SDS_P2;PMS_P1;PMS_P2;Temp;Humidity;BMP_temperature;BMP_pressure;BME280_temperature;BME280_humidity;BME280_pressure;Samples;Min_cycle;Max_cycle;Signal;HPM_P1;HPM_P2
2022/11/28 00:01:23;;;;;;;1.57;1.47;;;;;;;6.09;100.00;100145.06;5058935;28;20823;-55
2022/11/28 00:03:50;;;;;;;1.33;1.30;;;;;;;6.05;100.00;100136.34;5062472;28;20920;-55
2022/11/28 00:06:16;;;;;;;3.40;3.20;;;;;;;6.01;100.00;100134.59;5064089;28;20458;-55
2022/11/28 00:08:44;;;;;;;1.90;1.80;;;;;;;5.94;100.00;100135.59;5059687;28;20817;-55
2022/11/28 00:11:12;;;;;;;1.93;0.67;;;;;;;5.93;100.00;100142.63;5056774;28;20454;-55
2022/11/28 00:13:39;;;;;;;3.17;2.37;;;;;;;5.96;100.00;100136.44;5060762;28;20544;-55
2022/11/28 00:16:08;;;;;;;2.23;2.13;;;;;;;5.97;100.00;100130.25;5063627;28;21071;-54
2022/11/28 00:18:34;;;;;;;5.50;1.27;;;;;;;6.08;100.00;100123.09;5060281;28;20540;-55
2022/11/28 00:21:04;;;;;;;2.87;1.23;;;;;;;6.03;100.00;100124.94;5057253;28;20874;-55
2022/11/28 00:23:32;;;;;;;1.47;1.37;;;;;;;5.99;100.00;100117.91;5059921;28;20481;-55
2022/11/28 00:26:00;;;;;;;1.63;1.53;;;;;;;6.05;100.00;100109.94;5063638;28;20470;-55
2022/11/28 00:28:27;;;;;;;3.73;2.20;;;;;;;6.00;100.00;100116.16;5060876;28;20462;-55
2022/11/28 00:30:53;;;;;;;1.23;1.23;;;;;;;6.03;100.00;100114.38;5054931;28;20880;-55
2022/11/28 00:33:20;;;;;;;0.83;0.83;;;;;;;6.01;100.00;100112.63;5041082;28;21006;-55
2022/11/28 00:35:46;;;;;;;1.90;1.40;;;;;;;5.98;100.00;100110.03;5062030;28;20489;-54
2022/11/28 00:38:13;;;;;;;1.80;1.70;;;;;;;5.97;100.00;100111.78;5060810;28;20454;-54
2022/11/28 00:40:39;;;;;;;1.57;1.47;;;;;;;6.03;100.00;100108.19;5056143;28;20454;-55
2022/11/28 00:43:06;;;;;;;2.40;2.20;;;;;;;6.02;100.00;100117.00;5057735;28;20510;-55
2022/11/28 00:45:32;;;;;;;1.40;1.30;;;;;;;6.17;100.00;100109.78;5063118;28;20987;-55
2022/11/28 00:47:59;;;;;;;2.70;2.50;;;;;;;6.23;100.00;100112.31;5060875;28;20539;-55
2022/11/28 00:50:25;;;;;;;1.30;1.20;;;;;;;6.13;100.00;100105.41;5056291;28;20456;-55
2022/11/28 00:52:52;;;;;;;2.70;1.73;;;;;;;6.31;100.00;100103.44;5058208;28;20493;-54
2022/11/28 00:55:18;;;;;;;1.57;1.33;;;;;;;6.28;100.00;100100.81;5057546;28;20468;-55
2022/11/28 00:57:45;;;;;;;2.07;1.60;;;;;;;6.20;100.00;100104.47;5053093;28;20818;-55
2022/11/28 01:00:12;;;;;;;1.63;1.53;;;;;;;6.29;100.00;100099.94;5056236;28;20610;-55
2022/11/28 01:02:38;;;;;;;1.63;1.37;;;;;;;6.33;100.00;100096.38;5066449;28;20863;-55
2022/11/28 01:05:05;;;;;;;0.70;0.70;;;;;;;6.27;100.00;100094.66;5056147;28;20473;-55
2022/11/28 01:07:32;;;;;;;1.20;1.10;;;;;;;6.35;100.00;100097.22;5057570;28;20455;-55
2022/11/28 01:09:59;;;;;;;2.80;1.87;;;;;;;6.57;100.00;100103.91;5062502;28;20540;-55
2022/11/28 01:12:25;;;;;;;2.00;1.90;;;;;;;6.59;100.00;100093.34;5061032;28;20493;-55
2022/11/28 01:14:52;;;;;;;5.80;2.30;;;;;;;6.41;100.00;100089.19;5055862;28;20583;-55
2022/11/28 01:17:19;;;;;;;2.40;1.43;;;;;;;6.48;100.00;100078.53;5056660;28;20600;-55
2022/11/28 01:19:45;;;;;;;11.43;2.07;;;;;;;6.24;100.00;100081.53;5062934;28;20454;-55
2022/11/28 01:22:11;;;;;;;0.70;0.70;;;;;;;6.22;100.00;100078.91;5062607;28;20821;-54
2022/11/28 01:24:38;;;;;;;1.63;1.53;;;;;;;6.21;100.00;100078.94;5055905;28;20525;-54
2022/11/28 01:27:05;;;;;;;2.27;1.80;;;;;;;6.16;100.00;100075.47;5057057;28;20451;-54
2022/11/28 01:29:31;;;;;;;1.30;1.20;;;;;;;6.03;100.00;100071.25;5063200;28;20482;-54
2022/11/28 01:31:58;;;;;;;1.90;1.80;;;;;;;6.07;100.00;100059.78;5043383;28;20452;-55
2022/11/28 01:34:24;;;;;;;1.23;1.10;;;;;;;6.09;100.00;100071.19;5055820;28;20504;-54
2022/11/28 01:36:50;;;;;;;1.00;0.90;;;;;;;5.98;100.00;100067.81;5057027;28;20451;-55
2022/11/28 01:39:17;;;;;;;1.37;1.13;;;;;;;6.01;100.00;100065.13;5063960;28;20454;-54
2022/11/28 01:41:44;;;;;;;5.50;2.70;;;;;;;5.99;100.00;100059.88;5065426;28;20481;-54
2022/11/28 01:44:13;;;;;;;1.53;1.43;;;;;;;6.10;100.00;100057.97;5057605;28;20470;-54
2022/11/28 01:46:41;;;;;;;1.60;1.50;;;;;;;6.02;100.00;100057.19;5057257;28;20458;-55
2022/11/28 01:49:12;;;;;;;4.40;2.33;;;;;;;6.14;100.00;100051.75;5064563;28;20481;-55
2022/11/28 01:51:43;;;;;;;0.93;0.93;;;;;;;6.03;100.00;100040.50;5063800;28;20445;-54
2022/11/28 01:54:11;;;;;;;2.93;2.30;;;;;;;5.91;100.00;100045.94;5059981;28;20580;-54
2022/11/28 01:56:54;;;;;;;3.90;2.80;;;;;;;6.01;100.00;100039.63;5045029;28;20451;-54
2022/11/28 01:59:25;;;;;;;1.50;1.40;;;;;;;6.03;100.00;100039.59;5060535;28;20451;-54
2022/11/28 02:01:51;;;;;;;0.80;0.80;;;;;;;6.07;100.00;100039.56;5067888;28;20446;-55
2022/11/28 02:04:19;;;;;;;2.00;1.90;;;;;;;5.98;100.00;100041.44;5060022;28;20498;-55
2022/11/28 02:06:45;;;;;;;2.40;1.93;;;;;;;6.01;100.00;100031.72;5065773;28;20985;-54
2022/11/28 02:09:14;;;;;;;2.27;2.07;;;;;;;6.01;100.00;100036.13;5062428;28;20830;-54
2022/11/28 02:11:55;;;;;;;1.93;1.70;;;;;;;6.04;100.00;100030.81;5062987;28;20458;-54
2022/11/28 02:14:56;;;;;;;1.80;1.70;;;;;;;5.89;100.00;100026.56;5062513;28;20519;-54
2022/11/28 02:17:34;;;;;;;1.33;1.33;;;;;;;5.93;100.00;100028.31;5063452;28;20454;-55
2022/11/28 02:20:34;;;;;;;0.90;0.90;;;;;;;5.91;100.00;100023.09;5058211;28;20808;-54
2022/11/28 02:23:35;;;;;;;2.50;1.60;;;;;;;5.91;100.00;100019.56;5056022;28;20520;-54
2022/11/28 02:26:11;;;;;;;2.70;2.50;;;;;;;5.98;100.00;100015.06;5055889;28;20515;-54
2022/11/28 02:29:14;;;;;;;2.20;2.10;;;;;;;5.98;100.00;100020.34;5056945;28;20450;-54
2022/11/28 02:32:11;;;;;;;1.63;1.57;;;;;;;5.86;100.00;100021.34;5036855;28;20873;-54
2022/11/28 02:34:46;;;;;;;2.27;1.33;;;;;;;5.86;100.00;100014.31;5046680;28;20563;-55
2022/11/28 02:37:24;;;;;;;4.70;2.57;;;;;;;5.96;100.00;100012.44;5057630;28;20445;-55
2022/11/28 02:39:59;;;;;;;2.17;1.30;;;;;;;5.88;100.00;100019.56;5062103;28;20450;-55
2022/11/28 02:42:50;;;;;;;1.73;1.63;;;;;;;5.82;100.00;100022.28;5066796;28;20461;-55
2022/11/28 02:45:27;;;;;;;1.53;1.43;;;;;;;5.86;100.00;100011.66;5069188;28;20473;-55
2022/11/28 02:48:01;;;;;;;2.80;1.20;;;;;;;5.78;100.00;100000.38;5061725;28;20828;-55
2022/11/28 02:50:34;;;;;;;1.03;0.97;;;;;;;5.77;100.00;99998.63;5066324;28;20881;-55
2022/11/28 02:53:18;;;;;;;1.50;1.40;;;;;;;5.74;100.00;99995.13;5066572;28;20496;-55
2022/11/28 02:55:44;;;;;;;1.17;1.10;;;;;;;5.73;100.00;99990.75;5034175;28;20964;-55
2022/11/28 02:58:12;;;;;;;3.13;1.17;;;;;;;5.89;100.00;99989.66;5060939;28;20457;-55
2022/11/28 03:00:43;;;;;;;1.40;1.33;;;;;;;5.86;100.00;99990.56;5061342;28;20460;-55
2022/11/28 03:03:27;;;;;;;0.97;0.97;;;;;;;5.88;100.00;99990.53;5066322;28;20441;-55
2022/11/28 03:06:00;;;;;;;2.53;0.97;;;;;;;5.85;100.00;99990.59;5064130;28;20837;-55
2022/11/28 03:08:53;;;;;;;3.00;2.87;;;;;;;5.77;100.00;99988.09;5066581;28;20451;-55
2022/11/28 03:11:32;;;;;;;1.10;1.00;;;;;;;5.77;100.00;99990.72;5066178;28;20447;-55
2022/11/28 03:14:33;;;;;;;1.67;1.37;;;;;;;5.78;100.00;99986.31;5063290;28;20484;-55
2022/11/28 03:17:06;;;;;;;4.87;2.03;;;;;;;5.60;100.00;99977.75;5072425;28;20879;-55
2022/11/28 03:19:41;;;;;;;1.77;1.67;;;;;;;5.66;100.00;99976.81;5058937;28;20811;-55
2022/11/28 03:22:24;;;;;;;0.93;0.93;;;;;;;5.60;100.00;99977.75;5060678;28;20473;-55
2022/11/28 03:24:59;;;;;;;3.90;1.60;;;;;;;5.57;100.00;99976.91;5047937;28;20461;-55
2022/11/28 03:27:40;;;;;;;1.40;1.07;;;;;;;5.65;100.00;99962.75;5058926;28;20542;-55
2022/11/28 03:30:23;;;;;;;1.03;0.77;;;;;;;5.53;100.00;99969.94;5061125;28;20447;-55
2022/11/28 03:32:53;;;;;;;9.13;1.67;;;;;;;5.54;100.00;99962.03;5044142;28;20491;-55
2022/11/28 03:35:25;;;;;;;1.67;1.50;;;;;;;5.54;100.00;99961.16;5065241;28;21002;-55
2022/11/28 03:38:01;;;;;;;1.00;1.00;;;;;;;5.30;100.00;99950.03;5060165;28;20449;-55
2022/11/28 03:40:32;;;;;;;1.83;1.73;;;;;;;5.43;100.00;99950.75;5069950;28;20640;-55
2022/11/28 03:43:11;;;;;;;3.33;0.80;;;;;;;5.45;100.00;99948.09;5061534;28;20931;-55
2022/11/28 03:45:41;;;;;;;2.30;1.20;;;;;;;5.45;100.00;99956.88;5058081;28;20526;-55
2022/11/28 03:48:14;;;;;;;1.17;1.07;;;;;;;5.37;100.00;99949.97;5058674;28;20470;-55
2022/11/28 03:50:46;;;;;;;2.20;1.17;;;;;;;5.34;100.00;99945.59;5065222;28;20442;-55
2022/11/28 03:53:29;;;;;;;1.53;0.63;;;;;;;5.45;100.00;99950.72;5065614;28;20833;-55
2022/11/28 03:56:33;;;;;;;1.20;1.10;;;;;;;5.52;100.00;99953.25;5051855;28;20848;-55
2022/11/28 03:59:05;;;;;;;0.60;0.60;;;;;;;5.52;100.00;99958.53;4970104;28;20451;-55
2022/11/28 04:02:00;;;;;;;2.43;2.23;;;;;;;5.57;100.00;99955.81;5059551;28;20459;-55
2022/11/28 04:04:46;;;;;;;1.23;1.13;;;;;;;5.55;100.00;99954.97;5044856;28;20468;-55
2022/11/28 04:07:22;;;;;;;1.50;1.40;;;;;;;5.50;100.00;99954.19;5049738;28;20870;-55
2022/11/28 04:09:53;;;;;;;5.10;1.60;;;;;;;5.45;100.00;99961.25;5057400;28;20449;-55
2022/11/28 04:12:34;;;;;;;2.47;1.90;;;;;;;5.40;100.00;99947.28;5048835;28;20971;-55
2022/11/28 04:15:10;;;;;;;1.00;0.80;;;;;;;5.52;100.00;99942.72;5037913;28;20498;-55
2022/11/28 04:17:48;;;;;;;1.50;1.50;;;;;;;5.50;100.00;99944.50;5064005;28;20495;-55
2022/11/28 04:20:31;;;;;;;0.43;0.43;;;;;;;5.42;100.00;99953.41;5060612;28;20507;-55
2022/11/28 04:23:05;;;;;;;1.93;1.83;;;;;;;5.45;100.00;99942.81;5051867;28;20455;-55
2022/11/28 04:25:36;;;;;;;1.57;1.47;;;;;;;5.38;100.00;99939.41;5063547;28;20470;-55
2022/11/28 04:28:07;;;;;;;0.60;0.60;;;;;;;5.33;100.00;99935.94;5063415;28;20458;-55
2022/11/28 04:30:36;;;;;;;1.47;1.37;;;;;;;5.43;100.00;99937.56;5051627;28;20951;-55
2022/11/28 04:33:06;;;;;;;1.03;0.80;;;;;;;5.24;100.00;99947.47;5041538;28;20455;-56
2022/11/28 04:35:39;;;;;;;0.67;0.67;;;;;;;5.37;100.00;99947.34;5063969;28;20470;-55
2022/11/28 04:38:08;;;;;;;1.83;1.73;;;;;;;5.34;100.00;99953.50;5060005;28;20473;-55
2022/11/28 04:40:40;;;;;;;2.27;1.27;;;;;;;5.31;100.00;99951.78;5056462;28;20453;-54
2022/11/28 04:43:13;;;;;;;1.20;0.97;;;;;;;5.56;100.00;99939.16;5059707;28;20481;-55
2022/11/28 04:45:50;;;;;;;1.77;1.30;;;;;;;5.42;100.00;99935.81;5063582;28;20897;-54
2022/11/28 04:48:17;;;;;;;0.70;0.70;;;;;;;5.53;100.00;99939.19;5063340;28;20476;-55
2022/11/28 04:51:15;;;;;;;1.40;1.30;;;;;;;5.39;100.00;99941.16;5043275;28;20508;-55
2022/11/28 04:54:10;;;;;;;1.80;0.93;;;;;;;5.47;100.00;99941.91;5054716;28;20873;-56
2022/11/28 04:56:43;;;;;;;1.03;1.00;;;;;;;5.39;100.00;99933.25;5043286;28;20502;-55
2022/11/28 04:59:12;;;;;;;0.63;0.63;;;;;;;5.35;100.00;99934.19;5060063;28;20489;-54
2022/11/28 05:01:40;;;;;;;0.83;0.83;;;;;;;5.31;100.00;99930.69;5061819;28;20964;-55
2022/11/28 05:04:07;;;;;;;1.53;1.43;;;;;;;5.39;100.00;99914.78;5060118;28;20842;-54
2022/11/28 05:06:35;;;;;;;2.27;1.27;;;;;;;5.32;100.00;99910.47;5063721;28;20454;-55
2022/11/28 05:09:03;;;;;;;2.00;1.80;;;;;;;5.26;100.00;99907.94;5060984;28;20461;-55
2022/11/28 05:11:30;;;;;;;1.47;1.40;;;;;;;5.32;100.00;99921.03;5056277;28;20989;-55
2022/11/28 05:13:56;;;;;;;1.37;0.90;;;;;;;5.35;100.00;99902.56;5058940;28;20494;-54
2022/11/28 05:16:23;;;;;;;1.27;0.90;;;;;;;5.37;100.00;99907.81;5063985;28;20451;-54
2022/11/28 05:18:49;;;;;;;2.10;0.93;;;;;;;5.46;100.00;99905.88;5061419;28;20488;-54
2022/11/28 05:21:16;;;;;;;1.93;1.83;;;;;;;5.46;100.00;99911.16;5056469;28;20946;-55
2022/11/28 05:23:44;;;;;;;2.30;2.20;;;;;;;5.48;100.00;99912.03;5058564;28;20509;-54
2022/11/28 05:26:16;;;;;;;1.43;1.10;;;;;;;5.50;100.00;99920.78;5063325;28;21040;-55
2022/11/28 05:28:44;;;;;;;2.90;2.47;;;;;;;5.50;100.00;99925.19;5062889;28;20501;-54
2022/11/28 05:31:12;;;;;;;2.37;1.60;;;;;;;5.86;100.00;99926.41;5049579;28;20459;-54
2022/11/28 05:33:39;;;;;;;2.63;1.97;;;;;;;5.96;100.00;99927.16;5042017;28;21097;-55
2022/11/28 05:36:08;;;;;;;1.63;1.53;;;;;;;5.75;100.00;99923.91;5062584;28;20485;-55
2022/11/28 05:38:39;;;;;;;1.20;0.90;;;;;;;5.72;100.00;99923.09;5062762;28;20457;-55
2022/11/28 05:41:06;;;;;;;0.70;0.63;;;;;;;5.65;100.00;99919.69;5057495;28;20479;-54
2022/11/28 05:43:32;;;;;;;1.37;1.20;;;;;;;5.64;100.00;99916.19;5056199;28;20447;-55
2022/11/28 05:45:58;;;;;;;3.20;1.80;;;;;;;5.53;100.00;99915.47;5062325;28;20471;-54
2022/11/28 05:48:25;;;;;;;8.00;1.70;;;;;;;5.54;100.00;99926.88;5063181;28;21038;-55
2022/11/28 05:50:51;;;;;;;3.63;1.27;;;;;;;5.49;100.00;99920.81;5056763;28;20488;-54
2022/11/28 05:53:18;;;;;;;2.43;2.23;;;;;;;5.48;100.00;99930.50;5055972;28;20450;-54
2022/11/28 05:55:46;;;;;;;1.33;0.93;;;;;;;5.64;100.00;99924.09;5052397;28;20471;-55
2022/11/28 05:58:12;;;;;;;0.90;0.90;;;;;;;5.60;100.00;99935.56;5058178;28;20960;-55
2022/11/28 06:00:39;;;;;;;2.03;1.53;;;;;;;5.61;100.00;99937.31;5049664;28;20447;-54
2022/11/28 06:03:05;;;;;;;1.40;1.30;;;;;;;5.48;100.00;99926.94;5062850;28;20465;-55
2022/11/28 06:05:32;;;;;;;2.30;1.60;;;;;;;5.38;100.00;99933.25;5058452;28;20474;-55
2022/11/28 06:08:11;;;;;;;2.63;1.43;;;;;;;5.68;100.00;99922.28;5054863;28;20532;-55
2022/11/28 06:10:38;;;;;;;1.70;1.57;;;;;;;5.61;100.00;99932.03;5058311;28;20524;-55
2022/11/28 06:13:04;;;;;;;2.73;1.17;;;;;;;5.60;100.00;99918.88;5065542;28;20455;-55
2022/11/28 06:15:32;;;;;;;1.23;1.13;;;;;;;5.55;100.00;99918.94;5064226;28;20501;-55
2022/11/28 06:18:03;;;;;;;2.47;1.77;;;;;;;5.52;100.00;99924.28;5039593;28;20812;-55
2022/11/28 06:20:29;;;;;;;2.10;1.80;;;;;;;5.53;100.00;99920.75;5065231;28;20789;-54
2022/11/28 06:22:56;;;;;;;1.03;0.90;;;;;;;5.53;100.00;99917.22;5059807;28;20954;-55
2022/11/28 06:25:22;;;;;;;6.50;1.07;;;;;;;5.58;100.00;99924.16;5060925;28;21060;-55
2022/11/28 06:27:48;;;;;;;2.20;2.10;;;;;;;5.57;100.00;99916.28;5066762;28;20454;-55
2022/11/28 06:30:15;;;;;;;2.60;1.90;;;;;;;5.51;100.00;99919.03;5065360;28;20546;-55
2022/11/28 06:32:41;;;;;;;2.10;2.00;;;;;;;5.44;100.00;99912.94;5059086;28;20453;-55
2022/11/28 06:35:08;;;;;;;0.70;0.70;;;;;;;5.39;100.00;99919.19;5060842;28;20494;-55
2022/11/28 06:37:34;;;;;;;0.97;0.97;;;;;;;5.42;100.00;99921.78;5066117;28;20454;-55
2022/11/28 06:40:01;;;;;;;1.43;1.33;;;;;;;5.39;100.00;99917.44;5063941;28;20461;-55
2022/11/28 06:42:27;;;;;;;2.00;1.90;;;;;;;5.33;100.00;99917.50;5059201;28;20453;-54
2022/11/28 06:44:54;;;;;;;2.47;2.27;;;;;;;5.46;100.00;99916.44;5059674;28;20528;-55
2022/11/28 06:47:20;;;;;;;9.30;1.87;;;;;;;5.47;100.00;99915.53;5066282;28;20450;-55
2022/11/28 06:49:47;;;;;;;1.67;1.57;;;;;;;5.59;100.00;99910.09;5065755;28;20450;-55
2022/11/28 06:52:14;;;;;;;4.40;2.50;;;;;;;5.47;100.00;99914.66;5059461;28;20456;-55
2022/11/28 06:54:41;;;;;;;0.90;0.90;;;;;;;5.56;100.00;99922.47;5059010;28;20528;-55
2022/11/28 06:57:07;;;;;;;1.67;1.60;;;;;;;5.52;100.00;99923.41;5045485;28;20962;-55
2022/11/28 06:59:33;;;;;;;1.70;1.70;;;;;;;5.62;100.00;99944.34;5057706;28;20451;-55
2022/11/28 07:02:02;;;;;;;2.60;1.90;;;;;;;5.85;100.00;99943.13;5057176;28;20457;-55
2022/11/28 07:04:33;;;;;;;0.80;0.80;;;;;;;5.83;100.00;99947.56;5064597;28;20466;-55
2022/11/28 07:06:59;;;;;;;2.63;2.43;;;;;;;5.90;100.00;99951.88;5059543;28;20450;-55
2022/11/28 07:09:26;;;;;;;0.93;0.83;;;;;;;5.80;100.00;99944.97;5058033;28;20465;-55
2022/11/28 07:11:52;;;;;;;1.57;1.47;;;;;;;5.68;100.00;99945.13;5063365;28;20454;-55
2022/11/28 07:14:19;;;;;;;1.00;1.00;;;;;;;5.67;100.00;99939.00;5065050;28;20505;-55
2022/11/28 07:16:47;;;;;;;4.60;1.70;;;;;;;5.74;100.00;99942.41;5060385;28;20454;-54
2022/11/28 07:19:15;;;;;;;3.17;2.87;;;;;;;5.75;100.00;99937.09;5058801;28;20500;-55
2022/11/28 07:21:41;;;;;;;1.27;1.27;;;;;;;6.10;100.00;99928.69;5062674;28;20450;-55
2022/11/28 07:24:07;;;;;;;2.80;2.37;;;;;;;6.01;100.00;99942.03;5060877;28;20473;-55
2022/11/28 07:26:36;;;;;;;0.93;0.93;;;;;;;6.18;100.00;99942.63;5040407;28;20505;-55
2022/11/28 07:29:05;;;;;;;1.10;1.10;;;;;;;6.20;100.00;99950.53;5064293;28;20456;-55
2022/11/28 07:31:32;;;;;;;0.97;0.97;;;;;;;6.26;100.00;99946.91;5048217;28;20451;-55
2022/11/28 07:34:02;;;;;;;1.53;1.43;;;;;;;6.20;100.00;99942.63;5060579;28;20494;-55
2022/11/28 07:36:29;;;;;;;1.43;1.33;;;;;;;6.18;100.00;99942.63;5061530;28;20446;-55
2022/11/28 07:38:58;;;;;;;4.20;2.30;;;;;;;6.52;100.00;99949.97;5057519;28;20542;-55
2022/11/28 07:41:26;;;;;;;2.63;2.10;;;;;;;6.76;100.00;99948.66;5059219;28;20504;-55
2022/11/28 07:43:55;;;;;;;6.50;2.70;;;;;;;6.47;100.00;99952.72;5063869;28;20451;-55
2022/11/28 07:46:22;;;;;;;1.37;1.27;;;;;;;6.17;100.00;99942.66;5063553;28;20454;-55
2022/11/28 07:48:49;;;;;;;2.10;2.00;;;;;;;6.08;100.00;99946.31;5057686;28;20468;-55
2022/11/28 07:51:24;;;;;;;4.37;1.07;;;;;;;6.08;100.00;99950.72;5058377;28;20516;-55
2022/11/28 07:53:51;;;;;;;1.90;1.80;;;;;;;6.12;100.00;99949.78;5063330;28;20457;-55
2022/11/28 07:56:23;;;;;;;1.83;1.70;;;;;;;6.06;100.00;99947.25;5037922;28;20935;-55
2022/11/28 07:58:50;;;;;;;1.97;1.87;;;;;;;6.07;100.00;99936.66;5045383;28;20829;-55
2022/11/28 08:01:25;;;;;;;0.90;0.90;;;;;;;5.96;100.00;99938.59;5046974;28;20454;-55
2022/11/28 08:03:52;;;;;;;4.87;1.50;;;;;;;6.03;100.00;99932.34;5070602;28;20487;-54
2022/11/28 08:06:22;;;;;;;1.17;1.10;;;;;;;5.97;100.00;99931.53;5056700;28;20557;-55
2022/11/28 08:08:49;;;;;;;1.70;1.60;;;;;;;5.90;100.00;99929.03;5061134;28;20453;-55
2022/11/28 08:11:17;;;;;;;1.37;1.27;;;;;;;6.05;100.00;99938.47;5063541;28;20462;-55
2022/11/28 08:13:44;;;;;;;2.57;1.63;;;;;;;6.12;100.00;99949.78;5059790;28;20955;-55
2022/11/28 08:16:19;;;;;;;3.70;2.73;;;;;;;6.28;100.00;99947.75;5056745;28;20449;-55
2022/11/28 08:18:47;;;;;;;2.00;1.87;;;;;;;6.23;100.00;99950.47;5059537;28;20915;-55
2022/11/28 08:21:17;;;;;;;6.00;1.30;;;;;;;6.33;100.00;99949.44;5054316;28;20454;-55
2022/11/28 08:23:44;;;;;;;2.40;1.87;;;;;;;6.30;100.00;99957.38;5058085;28;20504;-55
2022/11/28 08:26:13;;;;;;;2.47;1.90;;;;;;;6.29;100.00;99958.28;5063308;28;20451;-55
2022/11/28 08:28:40;;;;;;;1.67;1.57;;;;;;;6.35;100.00;99949.41;5063055;28;20449;-55
2022/11/28 08:31:12;;;;;;;7.10;2.10;;;;;;;6.41;100.00;99950.16;5050662;28;20456;-55
2022/11/28 08:33:40;;;;;;;4.63;2.03;;;;;;;6.40;100.00;99939.63;5056365;28;20465;-55
2022/11/28 08:36:09;;;;;;;1.73;1.63;;;;;;;6.35;100.00;99947.63;5056846;28;20497;-55
2022/11/28 08:38:36;;;;;;;1.07;1.07;;;;;;;6.26;100.00;99939.84;5056652;28;20477;-55
2022/11/28 08:41:05;;;;;;;4.23;1.73;;;;;;;6.29;100.00;99944.22;5061563;28;20450;-55
2022/11/28 08:43:33;;;;;;;1.30;1.20;;;;;;;6.32;100.00;99939.78;5062636;28;20450;-55
2022/11/28 08:46:00;;;;;;;6.03;3.00;;;;;;;6.49;100.00;99939.47;5058082;28;20474;-55
2022/11/28 08:48:26;;;;;;;1.93;1.83;;;;;;;6.35;100.00;99938.84;5056043;28;20455;-55
2022/11/28 08:50:53;;;;;;;1.30;1.30;;;;;;;6.31;100.00;99943.31;5060759;28;20455;-55
2022/11/28 08:53:19;;;;;;;1.50;1.40;;;;;;;6.33;100.00;99943.28;5062733;28;20523;-55
2022/11/28 08:55:45;;;;;;;4.03;1.97;;;;;;;6.40;100.00;99937.84;5040919;28;21018;-54
2022/11/28 08:58:13;;;;;;;1.40;1.30;;;;;;;6.34;100.00;99937.09;5059110;28;20450;-56
2022/11/28 09:00:43;;;;;;;1.03;0.90;;;;;;;6.40;100.00;99940.50;5059138;28;20852;-56
2022/11/28 09:03:14;;;;;;;1.83;1.73;;;;;;;6.42;100.00;99940.47;5062951;28;20472;-56
2022/11/28 09:05:41;;;;;;;1.97;1.77;;;;;;;6.40;100.00;99937.84;5059827;28;20462;-56
2022/11/28 09:08:08;;;;;;;1.73;1.63;;;;;;;6.51;100.00;99938.53;5055736;28;20453;-56
2022/11/28 09:10:38;;;;;;;1.80;1.70;;;;;;;6.62;100.00;99933.06;5058305;28;20447;-57
2022/11/28 09:13:05;;;;;;;3.13;1.80;;;;;;;6.65;100.00;99938.28;5062423;28;20455;-56
2022/11/28 09:15:32;;;;;;;1.70;1.50;;;;;;;6.53;100.00;99935.88;5060216;28;21166;-56
2022/11/28 09:17:59;;;;;;;2.03;1.80;;;;;;;6.58;100.00;99938.41;5055727;28;20461;-56
2022/11/28 09:20:25;;;;;;;1.60;1.50;;;;;;;6.61;100.00;99948.94;5057323;28;20454;-56
2022/11/28 09:22:52;;;;;;;3.53;2.83;;;;;;;6.77;100.00;99953.91;5062456;28;20971;-56
2022/11/28 09:25:18;;;;;;;2.93;2.40;;;;;;;6.60;100.00;99953.38;5060826;28;20469;-56
2022/11/28 09:27:45;;;;;;;2.87;2.77;;;;;;;6.65;100.00;99951.50;5055256;28;20791;-56
2022/11/28 09:30:12;;;;;;;1.73;1.63;;;;;;;6.84;100.00;99954.66;5056644;28;20447;-56
2022/11/28 09:32:38;;;;;;;4.17;2.13;;;;;;;6.71;100.00;99951.38;5042704;28;20538;-56
2022/11/28 09:35:05;;;;;;;3.17;2.97;;;;;;;6.80;100.00;99951.22;5061212;28;20504;-56
2022/11/28 09:37:31;;;;;;;2.23;2.10;;;;;;;7.15;100.00;99952.31;5055296;28;20445;-56
2022/11/28 09:39:58;;;;;;;3.60;1.90;;;;;;;7.18;100.00;99940.81;5051581;28;20929;-57
2022/11/28 09:42:42;;;;;;;3.10;2.07;;;;;;;7.02;100.00;99943.75;5045423;28;20456;-56
2022/11/28 09:45:31;;;;;;;3.43;3.13;;;;;;;7.03;100.00;99945.50;5055714;28;20824;-54
2022/11/28 09:48:24;;;;;;;1.50;1.40;;;;;;;7.12;100.00;99941.78;5058743;28;20451;-54
2022/11/28 09:50:56;;;;;;;2.87;1.90;;;;;;;7.02;100.00;99942.88;5051157;28;20468;-56
2022/11/28 09:53:33;;;;;;;1.70;1.27;;;;;;;6.97;100.00;99942.09;5059288;28;20857;-54
2022/11/28 09:56:10;;;;;;;3.13;2.93;;;;;;;7.11;100.00;99942.69;5060728;28;20489;-56
2022/11/28 09:58:54;;;;;;;2.00;1.90;;;;;;;7.01;100.00;99949.06;5066749;28;20458;-56
2022/11/28 10:01:35;;;;;;;2.10;1.90;;;;;;;6.79;100.00;99943.31;5063497;28;20446;-56
2022/11/28 10:04:23;;;;;;;2.23;2.10;;;;;;;6.73;100.00;99946.97;5062392;28;20447;-56
2022/11/28 10:06:56;;;;;;;1.80;1.67;;;;;;;6.70;100.00;99944.34;5065924;28;20971;-56
2022/11/28 10:09:28;;;;;;;3.30;2.07;;;;;;;6.65;100.00;99940.94;5065740;28;20450;-56
2022/11/28 10:12:30;;;;;;;3.27;2.13;;;;;;;6.66;100.00;99942.69;5060510;28;20897;-56
2022/11/28 10:15:20;;;;;;;5.03;2.80;;;;;;;6.93;100.00;99943.94;5058782;28;20492;-56
2022/11/28 10:17:47;;;;;;;1.50;1.40;;;;;;;6.87;100.00;99943.19;5058874;28;20562;-56
2022/11/28 10:20:37;;;;;;;2.33;2.10;;;;;;;6.84;100.00;99937.03;5063276;28;20455;-56
2022/11/28 10:23:18;;;;;;;3.07;2.37;;;;;;;6.93;100.00;99935.13;5065580;28;20446;-55
2022/11/28 10:26:01;;;;;;;1.40;1.30;;;;;;;6.79;100.00;99933.63;5065338;28;20466;-55
2022/11/28 10:28:32;;;;;;;1.53;1.43;;;;;;;6.82;100.00;99933.56;5062556;28;20943;-56
2022/11/28 10:31:05;;;;;;;3.00;2.80;;;;;;;6.76;100.00;99936.31;5055613;28;20446;-56
2022/11/28 10:33:54;;;;;;;1.80;1.70;;;;;;;6.83;100.00;99930.00;5056913;28;20485;-56
2022/11/28 10:36:26;;;;;;;3.17;2.97;;;;;;;6.90;100.00;99925.50;5063558;28;20499;-56
2022/11/28 10:38:53;;;;;;;1.80;1.57;;;;;;;7.11;100.00;99929.47;5065279;28;20926;-56
2022/11/28 10:41:22;;;;;;;2.90;1.77;;;;;;;7.12;100.00;99925.91;5061364;28;20460;-56
2022/11/28 10:44:13;;;;;;;2.23;2.13;;;;;;;7.07;100.00;99926.03;5058037;28;20454;-56
2022/11/28 10:46:56;;;;;;;2.10;2.00;;;;;;;7.08;100.00;99927.75;5058310;28;20537;-56
2022/11/28 10:49:25;;;;;;;1.63;1.53;;;;;;;7.41;100.00;99928.84;5062693;28;20503;-56
2022/11/28 10:52:16;;;;;;;3.73;3.37;;;;;;;7.32;100.00;99923.75;5065042;28;20828;-54
2022/11/28 10:54:48;;;;;;;4.00;0.93;;;;;;;7.20;100.00;99921.34;5064827;28;20940;-54
2022/11/28 10:57:36;;;;;;;3.33;2.60;;;;;;;7.17;100.00;99920.56;5046533;28;20456;-56
2022/11/28 11:00:13;;;;;;;4.47;3.40;;;;;;;7.12;100.00;99923.28;5058088;28;20503;-56
2022/11/28 11:02:45;;;;;;;48.80;4.70;;;;;;;7.19;100.00;99924.03;5067870;28;20541;-56
2022/11/28 11:05:17;;;;;;;2.80;2.40;;;;;;;7.11;100.00;99924.19;5057457;28;20987;-56
2022/11/28 11:07:50;;;;;;;2.80;2.70;;;;;;;7.16;100.00;99921.47;5058139;28;20501;-56
2022/11/28 11:10:22;;;;;;;2.10;1.90;;;;;;;7.16;100.00;99918.81;5062493;28;20454;-56
2022/11/28 11:12:51;;;;;;;3.27;3.03;;;;;;;7.36;100.00;99922.78;5064820;28;20461;-56
2022/11/28 11:15:20;;;;;;;3.13;3.03;;;;;;;7.35;100.00;99914.88;5059923;28;20493;-56
2022/11/28 11:17:46;;;;;;;3.57;2.67;;;;;;;7.40;100.00;99916.53;5057611;28;20501;-56
2022/11/28 11:20:22;;;;;;;2.23;2.07;;;;;;;7.42;100.00;99921.78;5061632;28;20458;-56
2022/11/28 11:22:56;;;;;;;2.20;2.10;;;;;;;7.63;100.00;99912.50;5064474;28;20454;-56
2022/11/28 11:25:25;;;;;;;1.53;1.43;;;;;;;7.71;100.00;99908.78;5062797;28;20488;-56
2022/11/28 11:27:54;;;;;;;2.47;2.37;;;;;;;7.51;100.00;99900.41;5057822;28;20457;-56
2022/11/28 11:30:41;;;;;;;2.73;1.40;;;;;;;7.41;100.00;99907.69;5058211;28;20459;-56
2022/11/28 11:33:15;;;;;;;3.90;2.87;;;;;;;7.39;100.00;99905.97;5059264;28;20878;-56
2022/11/28 11:35:46;;;;;;;2.20;1.90;;;;;;;7.39;100.00;99913.91;5057006;28;20498;-56
2022/11/28 11:38:15;;;;;;;2.33;2.23;;;;;;;7.34;100.00;99908.72;5060752;28;20454;-55
2022/11/28 11:40:42;;;;;;;2.20;2.10;;;;;;;7.87;100.00;99906.63;5064504;28;20447;-55
2022/11/28 11:43:27;;;;;;;2.30;2.10;;;;;;;7.57;100.00;99904.72;5061688;28;20454;-56
2022/11/28 11:46:09;;;;;;;3.50;3.30;;;;;;;7.48;100.00;99894.31;5057463;28;20996;-56
2022/11/28 11:48:51;;;;;;;2.43;2.07;;;;;;;7.39;100.00;99892.75;5057053;28;20446;-56
2022/11/28 11:51:20;;;;;;;1.70;1.60;;;;;;;7.63;100.00;99897.50;5059675;28;20446;-56
2022/11/28 11:53:47;;;;;;;2.73;2.53;;;;;;;7.45;100.00;99908.50;5064151;28;20912;-57